createdAt,value
2023-04-18T00:01:54.319Z,101604.09
2023-04-18T00:04:22.074Z,101599.03
2023-04-18T00:06:50.071Z,101603.75
2023-04-18T00:09:17.169Z,101604.97
2023-04-18T00:11:44.569Z,101599.06
2023-04-18T00:14:12.157Z,101597.50
2023-04-18T00:16:39.647Z,101592.56
2023-04-18T00:19:07.021Z,101596.41
2023-04-18T00:21:34.017Z,101595.94
2023-04-18T00:24:01.150Z,101594.59
2023-04-18T00:26:28.444Z,101597.63
2023-04-18T00:28:55.445Z,101601.72
2023-04-18T00:31:22.540Z,101603.03
2023-04-18T00:33:49.704Z,101597.38
2023-04-18T00:36:16.710Z,101598.56
2023-04-18T00:38:43.633Z,101589.88
2023-04-18T00:41:10.741Z,101582.44
2023-04-18T00:43:37.812Z,101587.84
2023-04-18T00:46:04.959Z,101587.34
2023-04-18T00:48:32.119Z,101582.41
2023-04-18T00:51:00.583Z,101588.81
2023-04-18T00:53:28.173Z,101583.59
2023-04-18T00:55:55.541Z,101594.94
2023-04-18T00:58:23.759Z,101588.06
2023-04-18T01:00:51.183Z,101590.84
2023-04-18T01:03:18.599Z,101576.47
2023-04-18T01:05:46.710Z,101592.28
2023-04-18T01:08:14.436Z,101598.28
2023-04-18T01:10:42.092Z,101592.53
2023-04-18T01:13:13.020Z,101596.75
2023-04-18T01:15:41.801Z,101595.91
2023-04-18T01:18:10.095Z,101596.75
2023-04-18T01:20:41.611Z,101604.72
2023-04-18T01:23:10.650Z,101600.50
2023-04-18T01:25:37.897Z,101597.59
2023-04-18T01:28:06.533Z,101585.44
2023-04-18T01:30:34.533Z,101593.38
2023-04-18T01:33:03.964Z,101605.56
2023-04-18T01:35:32.128Z,101593.97
2023-04-18T01:37:59.632Z,101593.16
2023-04-18T01:40:26.760Z,101582.53
2023-04-18T01:42:53.914Z,101589.66
2023-04-18T01:45:21.294Z,101584.94
2023-04-18T01:47:48.467Z,101584.94
2023-04-18T01:50:15.584Z,101583.84
2023-04-18T01:52:42.668Z,101588.19
2023-04-18T01:55:10.224Z,101586.50
2023-04-18T01:57:37.350Z,101582.03
2023-04-18T02:00:06.414Z,101589.16
2023-04-18T02:02:33.798Z,101590.00
2023-04-18T02:05:00.951Z,101579.53
2023-04-18T02:07:27.995Z,101575.78
2023-04-18T02:09:55.320Z,101594.94
2023-04-18T02:12:22.681Z,101588.81
2023-04-18T02:14:53.653Z,101591.47
2023-04-18T02:17:23.670Z,101594.59
2023-04-18T02:19:51.724Z,101591.97
2023-04-18T02:22:19.047Z,101596.03
2023-04-18T02:24:46.213Z,101589.66
2023-04-18T02:27:13.425Z,101596.41
2023-04-18T02:29:40.556Z,101595.31
2023-04-18T02:32:07.864Z,101591.47
2023-04-18T02:34:36.532Z,101584.22
2023-04-18T02:37:04.271Z,101588.22
2023-04-18T02:39:31.715Z,101589.88
2023-04-18T02:41:59.263Z,101584.25
2023-04-18T02:44:26.306Z,101578.81
2023-04-18T02:46:53.489Z,101584.75
2023-04-18T02:49:20.502Z,101583.50
2023-04-18T02:51:47.585Z,101584.13
2023-04-18T02:54:15.011Z,101587.34
2023-04-18T02:56:43.063Z,101586.25
2023-04-18T02:59:10.127Z,101586.88
2023-04-18T03:01:37.374Z,101585.91
2023-04-18T03:04:04.635Z,101586.50
2023-04-18T03:06:32.053Z,101571.78
2023-04-18T03:08:59.356Z,101580.69
2023-04-18T03:11:26.559Z,101586.25
2023-04-18T03:13:54.226Z,101577.88
2023-04-18T03:16:21.491Z,101588.75
2023-04-18T03:18:48.599Z,101583.75
2023-04-18T03:21:15.775Z,101590.97
2023-04-18T03:23:43.106Z,101590.91
2023-04-18T03:26:10.227Z,101589.06
2023-04-18T03:28:37.329Z,101586.47
2023-04-18T03:31:04.733Z,101588.25
2023-04-18T03:33:31.831Z,101591.69
2023-04-18T03:35:59.486Z,101582.81
2023-04-18T03:38:26.623Z,101577.28
2023-04-18T03:40:54.111Z,101578.03
2023-04-18T03:43:21.309Z,101585.94
2023-04-18T03:45:48.766Z,101582.22
2023-04-18T03:48:15.915Z,101584.38
2023-04-18T03:50:43.017Z,101578.69
2023-04-18T03:53:10.177Z,101578.88
2023-04-18T03:55:37.224Z,101577.66
2023-04-18T03:58:04.290Z,101582.59
2023-04-18T04:00:31.534Z,101589.88
2023-04-18T04:02:58.801Z,101592.25
2023-04-18T04:05:26.092Z,101587.06
2023-04-18T04:07:53.471Z,101588.19
2023-04-18T04:10:20.794Z,101594.22
2023-04-18T04:12:48.091Z,101594.91
2023-04-18T04:15:15.449Z,101596.19
2023-04-18T04:17:42.521Z,101591.00
2023-04-18T04:20:10.170Z,101594.69
2023-04-18T04:22:37.647Z,101579.53
2023-04-18T04:25:05.542Z,101581.03
2023-04-18T04:27:34.260Z,101585.81
2023-04-18T04:30:02.798Z,101586.25
2023-04-18T04:32:31.140Z,101582.97
2023-04-18T04:34:58.271Z,101581.41
2023-04-18T04:37:25.349Z,101582.25
2023-04-18T04:39:52.608Z,101586.06
2023-04-18T04:42:20.012Z,101577.88
2023-04-18T04:44:47.483Z,101583.03
2023-04-18T04:47:14.430Z,101572.19
2023-04-18T04:49:41.470Z,101578.88
2023-04-18T04:52:09.284Z,101583.41
2023-04-18T04:54:37.387Z,101586.56
2023-04-18T04:57:04.684Z,101587.22
2023-04-18T04:59:31.861Z,101592.66
2023-04-18T05:01:58.931Z,101596.59
2023-04-18T05:04:29.999Z,101586.16
2023-04-18T05:07:00.416Z,101588.06
2023-04-18T05:09:27.540Z,101590.53
2023-04-18T05:11:54.572Z,101585.47
2023-04-18T05:14:21.799Z,101594.63
2023-04-18T05:16:48.876Z,101585.34
2023-04-18T05:19:15.996Z,101587.63
2023-04-18T05:21:43.085Z,101588.53
2023-04-18T05:24:10.448Z,101584.25
2023-04-18T05:26:37.733Z,101595.50
2023-04-18T05:29:04.872Z,101599.69
2023-04-18T05:31:32.246Z,101603.06
2023-04-18T05:33:59.345Z,101592.84
2023-04-18T05:36:26.934Z,101594.97
2023-04-18T05:38:53.975Z,101591.38
2023-04-18T05:41:21.206Z,101589.78
2023-04-18T05:44:01.913Z,101604.00
2023-04-18T05:46:32.012Z,101595.69
2023-04-18T05:48:59.126Z,101597.41
2023-04-18T05:51:27.065Z,101601.47
2023-04-18T05:53:54.423Z,101597.88
2023-04-18T05:56:21.530Z,101595.09
2023-04-18T05:58:51.470Z,101599.19
2023-04-18T06:01:21.743Z,101594.69
2023-04-18T06:03:48.981Z,101603.97
2023-04-18T06:06:16.355Z,101599.34
2023-04-18T06:08:43.718Z,101603.41
2023-04-18T06:11:11.023Z,101604.00
2023-04-18T06:13:38.101Z,101602.75
2023-04-18T06:16:05.677Z,101607.19
2023-04-18T06:18:32.844Z,101600.81
2023-04-18T06:21:00.172Z,101612.34
2023-04-18T06:23:27.230Z,101599.78
2023-04-18T06:25:54.253Z,101602.41
2023-04-18T06:28:21.246Z,101599.69
2023-04-18T06:30:48.357Z,101609.63
2023-04-18T06:33:15.659Z,101602.34
2023-04-18T06:35:43.021Z,101604.03
2023-04-18T06:38:11.873Z,101599.94
2023-04-18T06:40:38.945Z,101611.31
2023-04-18T06:43:06.183Z,101601.91
2023-04-18T06:45:33.522Z,101596.78
2023-04-18T06:48:03.701Z,101598.75
2023-04-18T06:50:31.314Z,101598.19
2023-04-18T06:52:58.400Z,101602.31
2023-04-18T06:55:25.430Z,101598.66
2023-04-18T06:57:53.075Z,101601.25
2023-04-18T07:00:20.503Z,101611.72
2023-04-18T07:02:47.992Z,101599.22
2023-04-18T07:05:15.153Z,101614.19
2023-04-18T07:07:42.226Z,101612.22
2023-04-18T07:10:10.715Z,101614.75
2023-04-18T07:12:37.773Z,101614.47
2023-04-18T07:15:05.241Z,101600.13
2023-04-18T07:17:32.735Z,101610.53
2023-04-18T07:19:59.908Z,101603.78
2023-04-18T07:22:27.001Z,101606.09
2023-04-18T07:24:54.006Z,101606.75
2023-04-18T07:27:21.202Z,101608.91
2023-04-18T07:29:48.214Z,101605.19
2023-04-18T07:32:15.282Z,101612.97
2023-04-18T07:34:43.918Z,101604.56
2023-04-18T07:37:13.480Z,101611.50
2023-04-18T07:39:41.935Z,101614.38
2023-04-18T07:42:10.064Z,101606.94
2023-04-18T07:44:37.191Z,101613.31
2023-04-18T07:47:04.559Z,101611.28
2023-04-18T07:49:31.606Z,101606.78
2023-04-18T07:51:58.725Z,101609.97
2023-04-18T07:54:25.990Z,101608.13
2023-04-18T07:56:53.203Z,101601.75
2023-04-18T07:59:20.610Z,101615.50
2023-04-18T08:01:47.624Z,101608.66
2023-04-18T08:04:15.322Z,101611.78
2023-04-18T08:06:42.602Z,101614.41
2023-04-18T08:09:09.763Z,101609.19
2023-04-18T08:11:36.898Z,101611.44
2023-04-18T08:14:04.075Z,101610.66
2023-04-18T08:16:31.119Z,101608.53
2023-04-18T08:18:58.097Z,101610.31
2023-04-18T08:21:26.560Z,101612.81
2023-04-18T08:23:53.678Z,101615.56
2023-04-18T08:26:21.850Z,101619.69
2023-04-18T08:28:49.020Z,101618.28
2023-04-18T08:31:16.559Z,101622.69
2023-04-18T08:33:43.860Z,101615.56
2023-04-18T08:36:12.203Z,101615.81
2023-04-18T08:38:39.432Z,101618.31
2023-04-18T08:41:06.409Z,101619.13
2023-04-18T08:43:33.498Z,101622.69
2023-04-18T08:46:01.930Z,101623.94
2023-04-18T08:48:29.376Z,101629.88
2023-04-18T08:51:00.033Z,101627.72
2023-04-18T08:53:27.431Z,101628.81
2023-04-18T08:55:58.137Z,101632.13
2023-04-18T08:58:28.036Z,101635.34
2023-04-18T09:00:55.551Z,101642.53
2023-04-18T09:03:42.614Z,101638.06
2023-04-18T09:06:12.703Z,101631.97
2023-04-18T09:08:44.176Z,101634.22
2023-04-18T09:11:42.570Z,101630.56
2023-04-18T09:14:24.674Z,101632.69
2023-04-18T09:16:51.727Z,101636.09
2023-04-18T09:19:19.101Z,101632.16
2023-04-18T09:21:47.481Z,101630.53
2023-04-18T09:24:24.495Z,101631.09
2023-04-18T09:26:54.094Z,101627.97
2023-04-18T09:29:22.752Z,101624.56
2023-04-18T09:31:54.933Z,101631.03
2023-04-18T09:34:26.560Z,101629.69
2023-04-18T09:37:08.578Z,101643.31
2023-04-18T09:39:40.197Z,101636.03
2023-04-18T09:42:08.789Z,101646.91
2023-04-18T09:44:35.944Z,101646.88
2023-04-18T09:47:03.156Z,101645.63
2023-04-18T09:49:30.477Z,101647.97
2023-04-18T09:51:58.063Z,101659.34
2023-04-18T09:54:25.685Z,101648.66
2023-04-18T09:56:54.452Z,101654.25
2023-04-18T09:59:34.615Z,101649.50
2023-04-18T10:02:03.800Z,101645.94
2023-04-18T10:04:32.855Z,101654.09
2023-04-18T10:07:00.986Z,101663.28
2023-04-18T10:09:33.473Z,101655.72
2023-04-18T10:12:02.952Z,101662.84
2023-04-18T10:14:33.165Z,101654.34
2023-04-18T10:17:01.307Z,101663.50
2023-04-18T10:19:30.230Z,101660.91
2023-04-18T10:22:02.040Z,101664.56
2023-04-18T10:25:08.018Z,101669.78
2023-04-18T10:27:57.839Z,101668.34
2023-04-18T10:30:42.945Z,101677.91
2023-04-18T10:33:40.954Z,101675.69
2023-04-18T10:36:09.642Z,101678.50
2023-04-18T10:38:45.554Z,101675.78
2023-04-18T10:41:19.377Z,101677.94
2023-04-18T10:44:08.862Z,101686.75
2023-04-18T10:46:42.518Z,101681.97
2023-04-18T10:49:32.030Z,101684.72
2023-04-18T10:52:01.831Z,101689.53
2023-04-18T10:54:51.795Z,101685.94
2023-04-18T10:57:18.877Z,101691.56
2023-04-18T10:59:51.167Z,101689.44
2023-04-18T11:02:30.648Z,101692.50
2023-04-18T11:05:04.864Z,101699.44
2023-04-18T11:07:40.609Z,101709.66
2023-04-18T11:10:09.489Z,101710.84
2023-04-18T11:12:38.788Z,101710.72
2023-04-18T11:15:15.394Z,101700.47
2023-04-18T11:17:42.325Z,101708.19
2023-04-18T11:20:15.055Z,101707.19
2023-04-18T11:22:57.180Z,101698.44
2023-04-18T11:25:27.136Z,101712.03
2023-04-18T11:27:57.134Z,101701.97
2023-04-18T11:30:24.663Z,101710.38
2023-04-18T11:32:52.480Z,101710.56
2023-04-18T11:35:19.724Z,101718.59
2023-04-18T11:37:46.869Z,101708.34
2023-04-18T11:40:14.700Z,101696.34
2023-04-18T11:42:42.624Z,101710.09
2023-04-18T11:45:12.150Z,101711.56
2023-04-18T11:47:40.248Z,101721.13
2023-04-18T11:50:09.160Z,101728.81
2023-04-18T11:52:37.291Z,101734.25
2023-04-18T11:55:15.161Z,101722.78
2023-04-18T11:57:42.253Z,101739.91
2023-04-18T12:00:12.435Z,101725.25
2023-04-18T12:02:45.282Z,101730.56
2023-04-18T12:05:15.044Z,101726.53
2023-04-18T12:07:45.189Z,101727.63
2023-04-18T12:10:21.116Z,101724.69
2023-04-18T12:12:53.470Z,101728.03
2023-04-18T12:15:23.615Z,101733.59
2023-04-18T12:17:54.010Z,101739.31
2023-04-18T12:20:25.169Z,101727.84
2023-04-18T12:22:53.268Z,101737.38
2023-04-18T12:25:25.913Z,101738.06
2023-04-18T12:28:15.085Z,101733.53
2023-04-18T12:30:42.803Z,101731.19
2023-04-18T12:33:10.010Z,101725.31
2023-04-18T12:35:37.149Z,101727.84
2023-04-18T12:38:05.941Z,101715.56
2023-04-18T12:40:33.173Z,101712.94
2023-04-18T12:43:02.898Z,101720.06
2023-04-18T12:45:30.564Z,101716.25
2023-04-18T12:47:57.552Z,101709.34
2023-04-18T12:50:26.623Z,101712.06
2023-04-18T12:52:55.349Z,101713.34
2023-04-18T12:55:23.042Z,101721.38
2023-04-18T12:57:54.541Z,101715.31
2023-04-18T13:00:23.745Z,101722.03
2023-04-18T13:02:52.695Z,101713.94
2023-04-18T13:05:22.804Z,101716.81
2023-04-18T13:07:56.379Z,101711.91
2023-04-18T13:10:29.067Z,101717.97
2023-04-18T13:12:56.074Z,101714.75
2023-04-18T13:15:24.079Z,101716.59
2023-04-18T13:17:51.326Z,101708.72
2023-04-18T13:20:18.848Z,101714.44
2023-04-18T13:22:46.266Z,101710.38
2023-04-18T13:25:13.569Z,101714.75
2023-04-18T13:27:42.177Z,101709.56
2023-04-18T13:30:11.453Z,101706.50
2023-04-18T13:32:41.469Z,101705.84
2023-04-18T13:35:11.237Z,101706.28
2023-04-18T13:37:38.910Z,101695.34
2023-04-18T13:40:07.204Z,101691.31
2023-04-18T13:42:35.981Z,101700.88
2023-04-18T13:45:03.464Z,101697.34
2023-04-18T13:47:33.799Z,101702.91
2023-04-18T13:50:00.883Z,101707.22
2023-04-18T13:52:28.234Z,101688.88
2023-04-18T13:54:55.344Z,101698.06
2023-04-18T13:57:23.425Z,101699.91
2023-04-18T13:59:52.872Z,101698.56
2023-04-18T14:02:20.070Z,101703.03
2023-04-18T14:04:47.542Z,101695.94
2023-04-18T14:07:15.007Z,101696.00
2023-04-18T14:09:42.322Z,101690.84
2023-04-18T14:12:09.508Z,101706.47
2023-04-18T14:14:37.310Z,101697.84
2023-04-18T14:17:04.448Z,101695.44
2023-04-18T14:19:31.558Z,101699.56
2023-04-18T14:21:58.859Z,101695.59
2023-04-18T14:24:26.458Z,101693.97
2023-04-18T14:26:53.544Z,101688.00
2023-04-18T14:29:20.705Z,101688.16
2023-04-18T14:31:47.910Z,101690.72
2023-04-18T14:34:15.085Z,101687.09
2023-04-18T14:36:42.292Z,101687.84
2023-04-18T14:39:09.356Z,101689.69
2023-04-18T14:41:36.492Z,101682.44
2023-04-18T14:44:04.340Z,101685.31
2023-04-18T14:46:31.652Z,101676.50
2023-04-18T14:48:58.744Z,101683.69
2023-04-18T14:51:26.403Z,101682.88
2023-04-18T14:53:53.508Z,101688.38
2023-04-18T14:56:24.397Z,101687.41
2023-04-18T14:58:51.520Z,101675.09
2023-04-18T15:01:18.861Z,101684.34
2023-04-18T15:03:46.292Z,101684.78
2023-04-18T15:06:13.477Z,101683.94
2023-04-18T15:08:40.977Z,101688.44
2023-04-18T15:11:08.698Z,101684.50
2023-04-18T15:13:36.131Z,101682.38
2023-04-18T15:16:03.619Z,101684.78
2023-04-18T15:18:30.865Z,101688.69
2023-04-18T15:20:59.725Z,101682.50
2023-04-18T15:23:27.971Z,101695.56
2023-04-18T15:25:55.210Z,101688.53
2023-04-18T15:28:22.287Z,101686.88
2023-04-18T15:30:49.548Z,101698.25
2023-04-18T15:33:18.107Z,101687.72
2023-04-18T15:35:45.976Z,101672.56
2023-04-18T15:38:13.484Z,101682.78
2023-04-18T15:40:40.988Z,101676.78
2023-04-18T15:43:08.398Z,101690.13
2023-04-18T15:45:36.286Z,101687.16
2023-04-18T15:48:03.437Z,101694.72
2023-04-18T15:50:33.641Z,101673.25
2023-04-18T15:53:00.927Z,101685.47
2023-04-18T15:55:28.090Z,101699.50
2023-04-18T15:57:55.668Z,101695.28
2023-04-18T16:00:23.536Z,101690.38
2023-04-18T16:02:50.875Z,101694.28
2023-04-18T16:05:19.112Z,101702.53
2023-04-18T16:07:46.415Z,101694.09
2023-04-18T16:10:15.368Z,101692.78
2023-04-18T16:12:42.735Z,101695.75
2023-04-18T16:15:10.232Z,101695.69
2023-04-18T16:17:37.883Z,101702.19
2023-04-18T16:20:09.346Z,101702.53
2023-04-18T16:22:37.869Z,101701.16
2023-04-18T16:25:05.660Z,101704.97
2023-04-18T16:27:33.434Z,101708.06
2023-04-18T16:30:01.055Z,101707.34
2023-04-18T16:32:28.541Z,101714.53
2023-04-18T16:34:55.890Z,101705.75
2023-04-18T16:37:23.251Z,101708.44
2023-04-18T16:39:50.582Z,101712.94
2023-04-18T16:42:17.542Z,101711.97
2023-04-18T16:44:48.372Z,101708.50
2023-04-18T16:47:15.511Z,101709.50
2023-04-18T16:49:44.235Z,101719.50
2023-04-18T16:52:11.257Z,101718.41
2023-04-18T16:54:38.473Z,101726.88
2023-04-18T16:57:05.733Z,101718.66
2023-04-18T16:59:32.837Z,101719.34
2023-04-18T17:01:59.930Z,101721.75
2023-04-18T17:04:27.483Z,101718.09
2023-04-18T17:06:57.245Z,101722.28
2023-04-18T17:09:24.498Z,101718.88
2023-04-18T17:11:51.536Z,101714.28
2023-04-18T17:14:18.721Z,101714.00
2023-04-18T17:16:46.028Z,101713.13
2023-04-18T17:19:13.374Z,101719.63
2023-04-18T17:21:40.942Z,101719.34
2023-04-18T17:24:08.267Z,101719.41
2023-04-18T17:26:37.304Z,101725.78
2023-04-18T17:29:04.866Z,101718.38
2023-04-18T17:31:32.238Z,101724.03
2023-04-18T17:34:00.053Z,101723.59
2023-04-18T17:36:27.446Z,101725.75
2023-04-18T17:38:54.551Z,101716.69
2023-04-18T17:41:22.138Z,101717.13
2023-04-18T17:43:52.312Z,101719.25
2023-04-18T17:46:19.559Z,101723.81
2023-04-18T17:48:47.350Z,101722.53
2023-04-18T17:51:16.633Z,101724.75
2023-04-18T17:53:43.858Z,101719.78
2023-04-18T17:56:11.228Z,101713.34
2023-04-18T17:58:38.360Z,101715.47
2023-04-18T18:01:17.241Z,101719.41
2023-04-18T18:03:45.125Z,101716.25
2023-04-18T18:06:13.509Z,101706.19
2023-04-18T18:08:42.682Z,101721.44
2023-04-18T18:11:10.878Z,101715.06
2023-04-18T18:13:41.149Z,101719.72
2023-04-18T18:16:09.025Z,101719.31
2023-04-18T18:18:37.065Z,101712.75
2023-04-18T18:21:04.290Z,101709.66
2023-04-18T18:23:31.486Z,101721.22
2023-04-18T18:25:58.768Z,101719.09
2023-04-18T18:28:25.863Z,101721.72
2023-04-18T18:30:53.789Z,101721.19
2023-04-18T18:33:21.311Z,101730.25
2023-04-18T18:35:48.434Z,101725.19
2023-04-18T18:38:15.402Z,101724.44
2023-04-18T18:40:42.476Z,101727.41
2023-04-18T18:43:12.466Z,101722.31
2023-04-18T18:45:39.702Z,101720.84
2023-04-18T18:48:10.512Z,101723.56
2023-04-18T18:50:37.500Z,101725.56
2023-04-18T18:53:06.274Z,101724.19
2023-04-18T18:55:33.363Z,101725.34
2023-04-18T18:58:00.378Z,101725.75
2023-04-18T19:00:27.582Z,101718.94
2023-04-18T19:02:54.830Z,101721.69
2023-04-18T19:05:22.317Z,101726.97
2023-04-18T19:07:51.571Z,101720.84
2023-04-18T19:10:18.874Z,101728.22
2023-04-18T19:12:45.892Z,101718.22
2023-04-18T19:15:13.260Z,101723.50
2023-04-18T19:17:46.652Z,101724.56
2023-04-18T19:20:17.098Z,101707.16
2023-04-18T19:22:48.701Z,101721.13
2023-04-18T19:25:16.380Z,101729.53
2023-04-18T19:27:43.498Z,101718.50
2023-04-18T19:30:11.600Z,101716.34
2023-04-18T19:32:41.166Z,101729.84
2023-04-18T19:35:13.876Z,101724.94
2023-04-18T19:37:42.929Z,101724.38
2023-04-18T19:40:10.934Z,101720.25
2023-04-18T19:42:38.045Z,101722.41
2023-04-18T19:45:05.890Z,101725.34
2023-04-18T19:47:34.131Z,101728.38
2023-04-18T19:50:01.753Z,101724.38
2023-04-18T19:52:30.982Z,101732.53
2023-04-18T19:54:58.164Z,101727.59
2023-04-18T19:57:26.517Z,101725.44
2023-04-18T19:59:53.504Z,101730.72
2023-04-18T20:02:20.841Z,101734.56
2023-04-18T20:04:48.266Z,101734.75
2023-04-18T20:07:15.331Z,101728.03
2023-04-18T20:09:42.408Z,101730.97
2023-04-18T20:12:09.509Z,101729.34
2023-04-18T20:14:36.634Z,101725.56
2023-04-18T20:17:03.734Z,101737.91
2023-04-18T20:19:30.953Z,101733.00
2023-04-18T20:21:58.033Z,101741.09
2023-04-18T20:24:28.176Z,101737.13
2023-04-18T20:26:55.497Z,101743.41
2023-04-18T20:29:22.570Z,101741.13
2023-04-18T20:31:49.512Z,101743.00
2023-04-18T20:34:16.661Z,101750.16
2023-04-18T20:36:45.162Z,101737.91
2023-04-18T20:39:13.303Z,101737.16
2023-04-18T20:41:49.493Z,101745.47
2023-04-18T20:44:19.252Z,101753.28
2023-04-18T20:46:46.529Z,101731.03
2023-04-18T20:49:13.853Z,101750.16
2023-04-18T20:51:41.466Z,101751.41
2023-04-18T20:54:08.883Z,101753.56
2023-04-18T20:56:38.999Z,101747.88
2023-04-18T20:59:06.167Z,101750.94
2023-04-18T21:01:33.798Z,101756.56
2023-04-18T21:04:02.293Z,101756.03
2023-04-18T21:06:29.773Z,101752.13
2023-04-18T21:08:56.872Z,101758.50
2023-04-18T21:11:24.140Z,101761.47
2023-04-18T21:13:51.583Z,101757.47
2023-04-18T21:16:18.683Z,101757.63
2023-04-18T21:18:45.914Z,101767.50
2023-04-18T21:21:13.219Z,101759.75
2023-04-18T21:23:43.924Z,101754.91
2023-04-18T21:26:12.216Z,101761.91
2023-04-18T21:29:02.071Z,101756.78
2023-04-18T21:31:30.924Z,101760.50
2023-04-18T21:34:00.249Z,101759.75
2023-04-18T21:36:28.711Z,101764.34
2023-04-18T21:38:57.611Z,101775.78
2023-04-18T21:41:25.500Z,101774.25
2023-04-18T21:43:53.212Z,101769.16
2023-04-18T21:46:20.531Z,101766.75
2023-04-18T21:48:48.184Z,101773.81
2023-04-18T21:51:16.880Z,101774.88
2023-04-18T21:53:44.418Z,101778.53
2023-04-18T21:56:11.683Z,101781.25
2023-04-18T21:58:38.704Z,101773.59
2023-04-18T22:01:06.140Z,101775.53
2023-04-18T22:03:34.311Z,101771.38
2023-04-18T22:06:02.148Z,101770.66
2023-04-18T22:08:29.711Z,101775.16
2023-04-18T22:10:59.095Z,101785.75
2023-04-18T22:13:33.339Z,101777.94
2023-04-18T22:16:04.925Z,101783.34
2023-04-18T22:18:35.246Z,101779.03
2023-04-18T22:21:03.670Z,101783.19
2023-04-18T22:23:30.945Z,101782.28
2023-04-18T22:25:58.129Z,101768.53
2023-04-18T22:28:28.083Z,101782.34
2023-04-18T22:30:55.263Z,101781.50
2023-04-18T22:33:22.409Z,101773.78
2023-04-18T22:35:49.440Z,101772.22
2023-04-18T22:38:16.531Z,101781.06
2023-04-18T22:40:43.558Z,101756.34
2023-04-18T22:43:10.535Z,101770.84
2023-04-18T22:45:37.526Z,101776.25
2023-04-18T22:48:05.009Z,101769.31
2023-04-18T22:50:32.165Z,101758.09
2023-04-18T22:52:59.145Z,101759.88
2023-04-18T22:55:26.202Z,101759.03
2023-04-18T22:57:53.083Z,101765.22
2023-04-18T23:00:20.211Z,101755.00
2023-04-18T23:02:47.442Z,101764.59
2023-04-18T23:05:16.238Z,101762.28
2023-04-18T23:07:43.211Z,101768.63
2023-04-18T23:10:10.835Z,101765.53
2023-04-18T23:12:37.814Z,101767.53
2023-04-18T23:15:05.289Z,101770.53
2023-04-18T23:17:35.074Z,101771.78
2023-04-18T23:20:02.220Z,101772.69
2023-04-18T23:22:30.775Z,101771.06
2023-04-18T23:24:57.878Z,101764.47
2023-04-18T23:27:24.976Z,101775.78
2023-04-18T23:29:51.962Z,101778.59
2023-04-18T23:32:19.041Z,101765.78
2023-04-18T23:34:46.496Z,101773.72
2023-04-18T23:37:13.511Z,101773.94
2023-04-18T23:39:41.008Z,101764.44
2023-04-18T23:42:07.964Z,101766.44
2023-04-18T23:44:34.900Z,101764.81
2023-04-18T23:47:02.085Z,101770.97
2023-04-18T23:49:29.156Z,101775.44
2023-04-18T23:51:56.150Z,101772.91
2023-04-18T23:54:23.429Z,101764.25
2023-04-18T23:56:50.456Z,101773.03
2023-04-18T23:59:17.461Z,101767.94
